Willard, Colorado
Current Conditions -  °F | °C
As of 10:10 AM on Thursday 18 Dec 2014 (Local Time) from KSTK Reporting Station
Clear Clear  
Wind Chill: -10°   Ceiling: Unl
Heat Index: -5°   Visibility: 7mi
Dew Point: -6°   Wind: 8mph
Humidity: 93%   Direction: 200°SSW
Pressure: 30.08"   Gusts: NA
Location:  40.5426°N, 103.449°W
Report Text: KSTK 181710Z AUTO 20007KT 7SM CLR M05/M06 A3008 RMK AO2
Loading
Personal Weather Stations






























Interactive Weather Map New forecast layout! Learn more

10-Day Weather Forecast

Advertisements
Track Severe Weather on mobile